createdAt,value
2018-06-13T00:02:13.454Z,99.90
2018-06-13T00:04:44.200Z,99.90
2018-06-13T00:07:15.644Z,99.90
2018-06-13T00:09:46.249Z,99.90
2018-06-13T00:12:16.820Z,99.90
2018-06-13T00:14:47.400Z,99.90
2018-06-13T00:17:17.981Z,99.90
2018-06-13T00:19:48.553Z,99.90
2018-06-13T00:22:19.042Z,99.90
2018-06-13T00:24:49.681Z,99.90
2018-06-13T00:27:20.424Z,99.90
2018-06-13T00:29:51.029Z,99.90
2018-06-13T00:32:21.663Z,99.90
2018-06-13T00:34:52.374Z,99.90
2018-06-13T00:37:23.044Z,99.90
2018-06-13T00:39:53.793Z,99.90
2018-06-13T00:42:24.321Z,99.90
2018-06-13T00:44:54.851Z,99.90
2018-06-13T00:47:25.421Z,99.90
2018-06-13T00:49:56.312Z,99.90
2018-06-13T00:52:26.938Z,99.90
2018-06-13T00:54:57.581Z,99.90
2018-06-13T00:57:28.045Z,99.90
2018-06-13T00:59:58.795Z,99.90
2018-06-13T01:02:29.341Z,99.90
2018-06-13T01:05:00.101Z,99.90
2018-06-13T01:07:30.756Z,99.90
2018-06-13T01:10:01.339Z,99.90
2018-06-13T01:12:31.889Z,99.90
2018-06-13T01:15:02.605Z,99.90
2018-06-13T01:17:33.201Z,99.90
2018-06-13T01:20:04.022Z,99.90
2018-06-13T01:22:35.268Z,99.90
2018-06-13T01:25:06.543Z,99.90
2018-06-13T01:27:37.049Z,99.90
2018-06-13T01:30:07.718Z,99.90
2018-06-13T01:32:38.425Z,99.90
2018-06-13T01:35:09.720Z,99.90
2018-06-13T01:40:11.292Z,99.90
2018-06-13T01:42:41.908Z,99.90
2018-06-13T01:45:12.537Z,99.90
2018-06-13T01:47:43.305Z,99.90
2018-06-13T01:50:13.999Z,99.90
2018-06-13T01:52:44.518Z,99.90
2018-06-13T01:55:15.180Z,99.90
2018-06-13T01:57:45.813Z,99.90
2018-06-13T02:00:16.300Z,99.90
2018-06-13T02:02:46.741Z,99.90
2018-06-13T02:05:17.997Z,99.90
2018-06-13T02:07:48.629Z,99.90
2018-06-13T02:12:49.481Z,99.90
2018-06-13T02:15:20.038Z,99.90
2018-06-13T02:17:50.673Z,99.90
2018-06-13T02:20:21.356Z,99.90
2018-06-13T02:22:54.929Z,99.90
2018-06-13T02:25:25.492Z,99.90
2018-06-13T02:27:56.172Z,99.90
2018-06-13T02:30:26.793Z,99.90
2018-06-13T02:32:57.289Z,99.90
2018-06-13T02:35:27.857Z,99.90
2018-06-13T02:37:58.341Z,99.90
2018-06-13T02:40:28.828Z,99.90
2018-06-13T02:42:59.777Z,99.90
2018-06-13T02:45:30.425Z,99.90
2018-06-13T02:48:01.492Z,99.90
2018-06-13T02:50:31.998Z,99.90
2018-06-13T02:53:02.695Z,99.90
2018-06-13T02:55:33.387Z,99.90
2018-06-13T02:58:03.820Z,99.90
2018-06-13T03:00:34.450Z,99.90
2018-06-13T03:03:05.164Z,99.90
2018-06-13T03:05:35.873Z,99.90
2018-06-13T03:08:06.497Z,99.90
2018-06-13T03:10:37.095Z,99.90
2018-06-13T03:13:07.873Z,99.90
2018-06-13T03:15:38.531Z,99.90
2018-06-13T03:18:09.226Z,99.90
2018-06-13T03:20:39.927Z,99.90
2018-06-13T03:25:40.655Z,99.90
2018-06-13T03:28:11.327Z,99.90
2018-06-13T03:30:41.920Z,99.90
2018-06-13T03:33:12.501Z,99.90
2018-06-13T03:35:43.033Z,99.90
2018-06-13T03:38:13.741Z,99.90
2018-06-13T03:40:44.266Z,99.90
2018-06-13T03:43:15.035Z,99.90
2018-06-13T03:45:45.712Z,99.90
2018-06-13T03:48:16.353Z,99.90
2018-06-13T03:50:46.871Z,99.90
2018-06-13T03:53:17.465Z,99.90
2018-06-13T03:55:48.078Z,99.90
2018-06-13T03:58:18.904Z,99.90
2018-06-13T04:00:49.441Z,99.90
2018-06-13T04:03:20.032Z,99.90
2018-06-13T04:05:50.716Z,99.90
2018-06-13T04:08:21.215Z,99.90
2018-06-13T04:10:51.895Z,99.90
2018-06-13T04:13:22.584Z,99.90
2018-06-13T04:15:53.144Z,99.90
2018-06-13T04:18:23.719Z,99.90
2018-06-13T04:20:54.275Z,99.90
2018-06-13T04:23:24.969Z,99.90
2018-06-13T04:30:56.944Z,99.90
2018-06-13T04:33:27.461Z,99.90
2018-06-13T04:35:58.148Z,99.90
2018-06-13T04:38:29.149Z,99.90
2018-06-13T04:40:59.718Z,99.90
2018-06-13T04:46:00.270Z,99.90
2018-06-13T04:51:00.953Z,99.90
2018-06-13T04:53:32.090Z,99.90
2018-06-13T04:56:02.606Z,99.90
2018-06-13T04:58:33.183Z,99.90
2018-06-13T05:01:03.891Z,99.90
2018-06-13T05:03:34.568Z,99.90
2018-06-13T05:06:05.222Z,99.90
2018-06-13T05:08:35.911Z,99.90
2018-06-13T05:11:06.919Z,99.90
2018-06-13T05:13:37.426Z,99.90
2018-06-13T05:16:08.169Z,99.90
2018-06-13T05:18:38.724Z,99.90
2018-06-13T05:21:09.422Z,99.90
2018-06-13T05:26:10.195Z,94.30
2018-06-13T05:28:40.962Z,91.40
2018-06-13T05:31:11.558Z,85.80
2018-06-13T05:36:12.307Z,77.70
2018-06-13T05:41:13.337Z,72.50
2018-06-13T05:43:43.997Z,68.90
2018-06-13T05:48:44.669Z,64.60
2018-06-13T05:51:15.471Z,62.50
2018-06-13T05:53:46.211Z,63.30
2018-06-13T05:56:16.736Z,61.10
2018-06-13T06:01:17.624Z,58.60
2018-06-13T06:03:48.263Z,58.40
2018-06-13T06:06:18.945Z,57.00
2018-06-13T06:08:49.663Z,56.30
2018-06-13T06:11:20.453Z,56.00
2018-06-13T06:13:51.049Z,55.00
2018-06-13T06:16:21.691Z,51.00
2018-06-13T06:18:52.329Z,51.10
2018-06-13T06:21:22.949Z,49.50
2018-06-13T06:23:53.678Z,49.60
2018-06-13T06:26:24.321Z,48.20
2018-06-13T06:31:25.430Z,47.70
2018-06-13T06:33:56.149Z,49.30
2018-06-13T06:36:26.704Z,48.40
2018-06-13T06:38:57.468Z,48.90
2018-06-13T06:41:28.530Z,47.60
2018-06-13T06:43:59.136Z,49.60
2018-06-13T06:46:29.951Z,50.00
2018-06-13T06:49:00.688Z,50.70
2018-06-13T06:51:31.352Z,46.70
2018-06-13T06:54:01.910Z,47.70
2018-06-13T06:56:32.416Z,51.10
2018-06-13T06:59:03.006Z,50.90
2018-06-13T07:01:33.666Z,50.50
2018-06-13T07:04:04.282Z,51.20
2018-06-13T07:06:34.817Z,51.30
2018-06-13T07:09:09.140Z,50.30
2018-06-13T07:11:39.874Z,50.00
2018-06-13T07:14:10.422Z,50.20
2018-06-13T07:16:41.014Z,52.20
2018-06-13T07:19:11.676Z,55.20
2018-06-13T07:24:12.508Z,60.10
2018-06-13T07:26:43.093Z,62.00
2018-06-13T07:29:13.575Z,62.30
2018-06-13T07:31:44.821Z,65.20
2018-06-13T07:34:15.648Z,65.70
2018-06-13T07:36:46.276Z,65.70
2018-06-13T07:39:16.945Z,67.20
2018-06-13T07:41:47.691Z,70.00
2018-06-13T07:44:18.761Z,71.00
2018-06-13T07:46:49.322Z,70.40
2018-06-13T07:49:19.821Z,73.00
2018-06-13T07:51:50.527Z,73.90
2018-06-13T07:54:21.128Z,75.40
2018-06-13T07:56:51.835Z,75.20
2018-06-13T07:59:22.309Z,76.50
2018-06-13T08:01:53.445Z,76.50
2018-06-13T08:04:24.130Z,76.80
2018-06-13T08:06:55.026Z,77.50
2018-06-13T08:09:25.635Z,76.10
2018-06-13T08:11:56.177Z,75.00
2018-06-13T08:14:26.656Z,74.70
2018-06-13T08:16:57.453Z,75.30
2018-06-13T08:19:27.968Z,74.50
2018-06-13T08:21:58.701Z,75.50
2018-06-13T08:24:34.299Z,74.90
2018-06-13T08:27:04.869Z,75.40
2018-06-13T08:29:35.434Z,77.50
2018-06-13T08:32:06.251Z,75.40
2018-06-13T08:34:37.062Z,75.70
2018-06-13T08:37:07.676Z,76.30
2018-06-13T08:39:38.444Z,75.10
2018-06-13T08:42:09.271Z,75.50
2018-06-13T08:44:39.921Z,75.80
2018-06-13T08:47:10.446Z,74.40
2018-06-13T08:49:41.145Z,73.90
2018-06-13T08:52:12.310Z,77.00
2018-06-13T08:54:42.767Z,73.80
2018-06-13T08:57:13.690Z,77.30
2018-06-13T08:59:44.413Z,75.40
2018-06-13T09:02:14.976Z,73.80
2018-06-13T09:04:45.565Z,76.90
2018-06-13T09:07:16.014Z,74.00
2018-06-13T09:09:47.181Z,73.00
2018-06-13T09:12:17.743Z,71.40
2018-06-13T09:14:48.319Z,70.50
2018-06-13T09:17:19.009Z,72.30
2018-06-13T09:19:49.475Z,74.20
2018-06-13T09:22:20.074Z,71.30
2018-06-13T09:24:50.544Z,73.50
2018-06-13T09:29:51.129Z,73.10
2018-06-13T09:32:21.583Z,74.10
2018-06-13T09:34:52.146Z,70.30
2018-06-13T09:39:52.994Z,69.30
2018-06-13T09:42:23.511Z,70.10
2018-06-13T09:44:54.134Z,68.00
2018-06-13T09:47:24.928Z,70.00
2018-06-13T09:49:56.219Z,68.90
2018-06-13T09:52:30.136Z,69.60
2018-06-13T09:55:00.846Z,69.60
2018-06-13T09:57:31.506Z,67.20
2018-06-13T10:00:07.212Z,68.50
2018-06-13T10:02:38.245Z,69.80
2018-06-13T10:05:09.333Z,68.60
2018-06-13T10:07:39.893Z,71.80
2018-06-13T10:10:10.351Z,71.00
2018-06-13T10:12:40.855Z,73.10
2018-06-13T10:15:11.378Z,72.70
2018-06-13T10:17:42.021Z,74.20
2018-06-13T10:20:12.602Z,73.60
2018-06-13T10:22:43.273Z,74.40
2018-06-13T10:25:14.203Z,74.00
2018-06-13T10:27:45.464Z,73.50
2018-06-13T10:30:16.165Z,73.50
2018-06-13T10:32:46.916Z,71.60
2018-06-13T10:35:17.734Z,71.80
2018-06-13T10:37:48.382Z,71.20
2018-06-13T10:40:18.961Z,70.20
2018-06-13T10:42:49.434Z,69.20
2018-06-13T10:45:20.085Z,70.30
2018-06-13T10:47:50.719Z,70.60
2018-06-13T10:50:21.349Z,69.50
2018-06-13T10:52:52.053Z,68.40
2018-06-13T10:55:22.817Z,67.90
2018-06-13T10:57:53.456Z,66.80
2018-06-13T11:00:24.172Z,66.10
2018-06-13T11:02:54.882Z,66.50
2018-06-13T11:07:55.748Z,66.00
2018-06-13T11:10:26.387Z,66.30
2018-06-13T11:12:56.969Z,67.90
2018-06-13T11:15:27.572Z,68.70
2018-06-13T11:17:58.296Z,68.60
2018-06-13T11:20:29.044Z,70.60
2018-06-13T11:22:59.850Z,71.90
2018-06-13T11:25:30.481Z,73.40
2018-06-13T11:28:01.229Z,72.80
2018-06-13T11:30:31.948Z,73.90
2018-06-13T11:33:03.200Z,74.00
2018-06-13T11:35:33.829Z,73.30
2018-06-13T11:38:04.483Z,72.00
2018-06-13T11:40:34.992Z,73.30
2018-06-13T11:48:06.195Z,66.50
2018-06-13T11:50:37.683Z,68.40
2018-06-13T11:53:08.231Z,65.40
2018-06-13T11:55:38.881Z,65.30
2018-06-13T11:58:09.582Z,63.30
2018-06-13T12:00:40.157Z,60.30
2018-06-13T12:03:10.928Z,61.40
2018-06-13T12:05:41.606Z,61.30
2018-06-13T12:08:12.291Z,61.20
2018-06-13T12:10:42.877Z,58.70
2018-06-13T12:15:43.691Z,61.60
2018-06-13T12:18:14.906Z,61.50
2018-06-13T12:20:45.588Z,61.10
2018-06-13T12:23:16.093Z,64.00
2018-06-13T12:25:46.975Z,61.80
2018-06-13T12:28:17.590Z,62.50
2018-06-13T12:30:48.350Z,63.40
2018-06-13T12:33:19.036Z,63.70
2018-06-13T12:35:49.802Z,63.30
2018-06-13T12:38:24.004Z,64.10
2018-06-13T12:40:54.650Z,64.50
2018-06-13T12:43:25.209Z,66.30
2018-06-13T12:45:55.898Z,65.10
2018-06-13T12:48:26.629Z,66.50
2018-06-13T12:50:57.431Z,67.50
2018-06-13T12:53:28.401Z,67.90
2018-06-13T12:55:59.073Z,70.40
2018-06-13T12:58:30.221Z,70.50
2018-06-13T13:01:00.915Z,70.00
2018-06-13T13:03:31.662Z,69.80
2018-06-13T13:06:03.299Z,69.70
2018-06-13T13:08:34.137Z,70.30
2018-06-13T13:11:04.907Z,72.20
2018-06-13T13:13:35.502Z,70.40
2018-06-13T13:16:06.241Z,71.90
2018-06-13T13:21:07.059Z,73.00
2018-06-13T13:23:37.600Z,72.00
2018-06-13T13:26:08.392Z,75.60
2018-06-13T13:28:39.141Z,73.20
2018-06-13T13:31:09.849Z,71.60
2018-06-13T13:33:40.524Z,71.10
2018-06-13T13:36:11.093Z,70.80
2018-06-13T13:38:41.705Z,72.00
2018-06-13T13:41:12.401Z,76.90
2018-06-13T13:43:43.115Z,70.90
2018-06-13T13:46:13.660Z,69.20
2018-06-13T13:48:44.630Z,67.60
2018-06-13T13:51:15.324Z,69.70
2018-06-13T13:53:45.872Z,69.30
2018-06-13T13:56:17.236Z,68.50
2018-06-13T13:58:47.948Z,69.80
2018-06-13T14:01:18.496Z,70.00
2018-06-13T14:03:49.227Z,69.50
2018-06-13T14:06:19.796Z,71.60
2018-06-13T14:08:50.574Z,71.70
2018-06-13T14:11:21.289Z,73.40
2018-06-13T14:16:22.125Z,73.70
2018-06-13T14:18:52.993Z,71.90
2018-06-13T14:21:23.434Z,72.60
2018-06-13T14:23:53.955Z,72.10
2018-06-13T14:26:24.573Z,70.30
2018-06-13T14:28:55.434Z,69.10
2018-06-13T14:31:26.149Z,71.20
2018-06-13T14:33:56.610Z,71.70
2018-06-13T14:36:29.990Z,69.10
2018-06-13T14:39:00.667Z,71.70
2018-06-13T14:41:31.331Z,70.10
2018-06-13T14:44:02.010Z,69.90
2018-06-13T14:46:32.695Z,70.80
2018-06-13T14:49:03.789Z,69.60
2018-06-13T14:51:34.449Z,68.40
2018-06-13T14:54:05.316Z,67.00
2018-06-13T14:56:35.875Z,64.50
2018-06-13T14:59:06.485Z,67.50
2018-06-13T15:01:37.015Z,66.20
2018-06-13T15:04:08.240Z,63.70
2018-06-13T15:06:38.925Z,64.60
2018-06-13T15:09:10.631Z,64.80
2018-06-13T15:11:41.589Z,63.10
2018-06-13T15:14:12.802Z,66.10
2018-06-13T15:16:44.195Z,65.20
2018-06-13T15:19:14.891Z,66.50
2018-06-13T15:21:46.121Z,67.00
2018-06-13T15:24:16.828Z,69.40
2018-06-13T15:26:47.607Z,67.60
2018-06-13T15:29:18.351Z,68.20
2018-06-13T15:31:49.244Z,69.30
2018-06-13T15:34:19.762Z,69.50
2018-06-13T15:36:50.705Z,69.70
2018-06-13T15:39:22.022Z,72.00
2018-06-13T15:41:52.533Z,69.00
2018-06-13T15:44:23.300Z,69.30
2018-06-13T15:46:53.996Z,69.70
2018-06-13T15:49:24.765Z,69.90
2018-06-13T15:51:55.389Z,67.30
2018-06-13T15:54:29.024Z,66.70
2018-06-13T15:56:59.694Z,68.90
2018-06-13T15:59:30.399Z,66.80
2018-06-13T16:02:01.065Z,68.40
2018-06-13T16:04:31.772Z,68.60
2018-06-13T16:07:02.302Z,69.70
2018-06-13T16:09:33.151Z,70.20
2018-06-13T16:12:03.819Z,71.30
2018-06-13T16:14:34.506Z,72.30
2018-06-13T16:17:05.143Z,72.50
2018-06-13T16:19:35.672Z,74.10
2018-06-13T16:22:06.415Z,74.60
2018-06-13T16:24:37.083Z,74.10
2018-06-13T16:27:07.756Z,74.60
2018-06-13T16:29:38.309Z,75.60
2018-06-13T16:32:08.978Z,76.00
2018-06-13T16:34:39.776Z,75.50
2018-06-13T16:37:10.807Z,73.30
2018-06-13T16:39:41.662Z,74.40
2018-06-13T16:42:12.208Z,75.10
2018-06-13T16:44:42.893Z,75.50
2018-06-13T16:47:13.382Z,74.40
2018-06-13T16:49:44.105Z,75.00
2018-06-13T16:52:31.719Z,75.40
2018-06-13T16:55:22.115Z,73.00
2018-06-13T16:57:53.166Z,72.30
2018-06-13T17:00:23.798Z,71.90
2018-06-13T17:02:54.474Z,71.50
2018-06-13T17:05:25.132Z,70.70
2018-06-13T17:07:55.693Z,72.60
2018-06-13T17:10:26.346Z,72.50
2018-06-13T17:12:57.271Z,73.20
2018-06-13T17:15:27.852Z,73.70
2018-06-13T17:17:58.407Z,76.80
2018-06-13T17:20:29.062Z,74.40
2018-06-13T17:22:59.848Z,75.20
2018-06-13T17:25:30.941Z,76.10
2018-06-13T17:28:01.642Z,78.10
2018-06-13T17:30:32.434Z,79.30
2018-06-13T17:33:03.569Z,78.60
2018-06-13T17:35:34.106Z,79.30
2018-06-13T17:38:04.878Z,77.20
2018-06-13T17:40:35.975Z,80.00
2018-06-13T17:45:36.878Z,78.50
2018-06-13T17:48:07.573Z,79.20
2018-06-13T17:50:38.112Z,81.10
2018-06-13T17:53:08.632Z,81.70
2018-06-13T17:55:39.227Z,83.50
2018-06-13T17:58:09.859Z,83.00
2018-06-13T18:00:40.605Z,83.10
2018-06-13T18:03:11.583Z,83.10
2018-06-13T18:05:42.268Z,84.20
2018-06-13T18:08:12.928Z,84.70
2018-06-13T18:10:43.629Z,88.10
2018-06-13T18:13:14.378Z,88.50
2018-06-13T18:15:45.160Z,86.20
2018-06-13T18:18:15.893Z,87.30
2018-06-13T18:20:46.500Z,86.50
2018-06-13T18:23:17.097Z,87.30
2018-06-13T18:25:47.750Z,90.10
2018-06-13T18:28:18.597Z,87.50
2018-06-13T18:30:49.174Z,90.40
2018-06-13T18:33:19.743Z,91.00
2018-06-13T18:35:50.444Z,91.10
2018-06-13T18:38:21.594Z,91.70
2018-06-13T18:40:52.376Z,91.80
2018-06-13T18:43:23.288Z,91.20
2018-06-13T18:45:54.239Z,92.00
2018-06-13T18:48:24.867Z,92.40
2018-06-13T18:50:55.518Z,92.50
2018-06-13T18:53:26.231Z,93.20
2018-06-13T18:55:57.278Z,94.20
2018-06-13T18:58:28.637Z,94.90
2018-06-13T19:01:03.769Z,96.40
2018-06-13T19:03:34.480Z,96.80
2018-06-13T19:06:05.134Z,97.20
2018-06-13T19:08:36.012Z,97.90
2018-06-13T19:11:06.833Z,98.70
2018-06-13T19:13:37.586Z,99.00
2018-06-13T19:16:08.086Z,98.70
2018-06-13T19:18:39.727Z,99.30
2018-06-13T19:21:10.539Z,99.50
2018-06-13T19:23:41.236Z,99.90
2018-06-13T19:28:42.103Z,99.90
2018-06-13T19:31:12.870Z,99.90
2018-06-13T19:33:43.383Z,99.90
2018-06-13T19:36:14.072Z,99.90
2018-06-13T19:38:44.625Z,99.90
2018-06-13T19:41:15.289Z,99.90
2018-06-13T19:43:46.861Z,99.90
2018-06-13T19:46:17.666Z,99.90
2018-06-13T19:48:51.892Z,99.90
2018-06-13T19:51:23.307Z,99.90
2018-06-13T19:53:58.836Z,99.90
2018-06-13T19:56:30.881Z,99.90
2018-06-13T19:59:01.490Z,99.90
2018-06-13T20:01:32.217Z,99.90
2018-06-13T20:04:08.154Z,99.90
2018-06-13T20:06:40.181Z,99.90
2018-06-13T20:09:12.365Z,99.90
2018-06-13T20:11:43.133Z,99.90
2018-06-13T20:14:19.058Z,99.90
2018-06-13T20:16:55.953Z,99.90
2018-06-13T20:19:32.005Z,99.90
2018-06-13T20:22:02.626Z,99.90
2018-06-13T20:24:33.200Z,99.90
2018-06-13T20:27:08.996Z,99.90
2018-06-13T20:29:45.651Z,99.90
2018-06-13T20:32:16.407Z,99.90
2018-06-13T20:34:46.973Z,99.90
2018-06-13T20:37:17.890Z,99.90
2018-06-13T20:42:19.177Z,99.90
2018-06-13T20:44:49.822Z,99.90
2018-06-13T20:47:20.661Z,99.90
2018-06-13T20:49:51.236Z,99.90
2018-06-13T20:52:22.024Z,99.90
2018-06-13T20:54:52.761Z,99.90
2018-06-13T20:57:23.342Z,99.90
2018-06-13T20:59:54.005Z,99.90
2018-06-13T21:02:24.969Z,99.90
2018-06-13T21:04:55.910Z,99.90
2018-06-13T21:07:26.576Z,99.90
2018-06-13T21:09:57.257Z,99.90
2018-06-13T21:12:27.992Z,99.90
2018-06-13T21:14:58.847Z,99.90
2018-06-13T21:17:29.885Z,99.90
2018-06-13T21:20:00.625Z,99.90
2018-06-13T21:22:31.347Z,99.90
2018-06-13T21:25:01.842Z,99.90
2018-06-13T21:27:32.416Z,99.90
2018-06-13T21:30:03.173Z,99.90
2018-06-13T21:32:33.708Z,99.90
2018-06-13T21:35:04.525Z,99.90
2018-06-13T21:37:35.326Z,99.90
2018-06-13T21:40:06.075Z,99.90
2018-06-13T21:42:36.826Z,99.90
2018-06-13T21:45:07.545Z,99.90
2018-06-13T21:47:38.687Z,99.90
2018-06-13T21:50:09.375Z,99.90
2018-06-13T21:52:40.154Z,99.90
2018-06-13T21:55:10.883Z,99.90
2018-06-13T21:57:41.718Z,99.90
2018-06-13T22:00:12.921Z,99.90
2018-06-13T22:02:44.881Z,99.90
2018-06-13T22:05:15.429Z,99.90
2018-06-13T22:10:16.205Z,99.90
2018-06-13T22:12:47.925Z,99.90
2018-06-13T22:15:23.304Z,99.90
2018-06-13T22:17:55.682Z,99.90
2018-06-13T22:20:26.688Z,99.90
2018-06-13T22:22:57.512Z,99.90
2018-06-13T22:25:28.164Z,99.90
2018-06-13T22:27:59.220Z,99.90
2018-06-13T22:30:29.847Z,99.90
2018-06-13T22:35:30.607Z,99.90
2018-06-13T22:38:01.269Z,99.90
2018-06-13T22:40:31.991Z,99.90
2018-06-13T22:43:02.545Z,99.90
2018-06-13T22:45:33.105Z,99.90
2018-06-13T22:48:03.779Z,99.90
2018-06-13T22:50:34.466Z,99.90
2018-06-13T22:53:05.323Z,99.90
2018-06-13T22:55:35.938Z,99.90
2018-06-13T23:01:02.074Z,99.90
2018-06-13T23:03:33.268Z,99.90
2018-06-13T23:06:11.065Z,99.90
2018-06-13T23:11:11.791Z,99.90
2018-06-13T23:13:42.556Z,99.90
2018-06-13T23:16:13.166Z,99.90
2018-06-13T23:18:43.786Z,99.90
2018-06-13T23:21:14.310Z,99.90
2018-06-13T23:23:44.844Z,99.90
2018-06-13T23:31:15.833Z,99.90
2018-06-13T23:33:46.600Z,99.90
2018-06-13T23:36:17.283Z,99.90
2018-06-13T23:41:18.059Z,99.90
2018-06-13T23:43:54.985Z,99.90
2018-06-13T23:46:25.654Z,99.90
2018-06-13T23:48:56.102Z,99.90
2018-06-13T23:53:56.716Z,99.90
